createdAt,value
2023-02-19T00:01:44.113Z,2.67
2023-02-19T00:04:19.409Z,2.83
2023-02-19T00:06:46.658Z,2.67
2023-02-19T00:09:15.121Z,3.20
2023-02-19T00:11:42.115Z,3.70
2023-02-19T00:14:09.278Z,3.05
2023-02-19T00:16:37.948Z,6.32
2023-02-19T00:19:06.615Z,2.90
2023-02-19T00:21:33.454Z,5.03
2023-02-19T00:24:05.169Z,3.88
2023-02-19T00:26:32.062Z,5.22
2023-02-19T00:29:00.013Z,4.70
2023-02-19T00:31:30.425Z,5.68
2023-02-19T00:34:00.307Z,7.43
2023-02-19T00:36:27.744Z,6.72
2023-02-19T00:38:54.896Z,5.57
2023-02-19T00:41:22.456Z,6.40
2023-02-19T00:44:00.473Z,4.78
2023-02-19T00:46:35.145Z,5.47
2023-02-19T00:49:02.337Z,6.35
2023-02-19T00:51:31.601Z,4.70
2023-02-19T00:53:58.726Z,6.15
2023-02-19T00:56:25.504Z,6.70
2023-02-19T00:58:52.566Z,5.60
2023-02-19T01:01:19.413Z,6.38
2023-02-19T01:03:46.717Z,3.47
2023-02-19T01:06:15.034Z,7.18
2023-02-19T01:08:42.199Z,5.05
2023-02-19T01:11:09.572Z,4.32
2023-02-19T01:13:37.041Z,4.75
2023-02-19T01:16:09.519Z,3.78
2023-02-19T01:18:36.591Z,4.22
2023-02-19T01:21:07.637Z,4.47
2023-02-19T01:23:35.396Z,3.78
2023-02-19T01:26:09.438Z,4.32
2023-02-19T01:28:36.533Z,4.93
2023-02-19T01:31:04.397Z,6.47
2023-02-19T01:33:31.522Z,4.40
2023-02-19T01:35:58.343Z,4.30
2023-02-19T01:38:25.475Z,3.10
2023-02-19T01:40:59.631Z,4.03
2023-02-19T01:43:26.684Z,3.57
2023-02-19T01:45:53.661Z,2.85
2023-02-19T01:48:28.184Z,2.08
2023-02-19T01:50:58.996Z,3.15
2023-02-19T01:53:27.352Z,3.13
2023-02-19T01:55:55.788Z,3.22
2023-02-19T01:58:24.449Z,3.83
2023-02-19T02:00:51.870Z,2.20
2023-02-19T02:03:19.388Z,3.05
2023-02-19T02:06:08.136Z,2.50
2023-02-19T02:08:53.850Z,5.00
2023-02-19T02:13:47.850Z,2.28
2023-02-19T02:16:17.812Z,2.15
2023-02-19T02:18:51.722Z,4.18
2023-02-19T02:21:30.522Z,2.17
2023-02-19T02:24:30.003Z,2.17
2023-02-19T02:27:24.837Z,2.42
2023-02-19T02:30:06.188Z,2.88
2023-02-19T02:32:53.612Z,2.03
2023-02-19T02:35:23.563Z,1.90
2023-02-19T02:37:51.085Z,3.25
2023-02-19T02:40:18.897Z,2.30
2023-02-19T02:42:45.648Z,3.60
2023-02-19T02:45:37.311Z,3.15
2023-02-19T02:48:26.272Z,3.58
2023-02-19T02:51:05.011Z,4.20
2023-02-19T02:53:55.935Z,3.25
2023-02-19T02:56:23.075Z,3.72
2023-02-19T02:58:50.016Z,3.50
2023-02-19T03:01:41.270Z,4.13
2023-02-19T03:04:12.250Z,4.00
2023-02-19T03:06:39.669Z,4.03
2023-02-19T03:09:12.043Z,3.25
2023-02-19T03:11:59.255Z,3.30
2023-02-19T03:14:50.342Z,3.13
2023-02-19T03:17:41.351Z,3.15
2023-02-19T03:20:11.203Z,4.35
2023-02-19T03:22:38.460Z,5.03
2023-02-19T03:25:25.348Z,4.13
2023-02-19T03:27:52.515Z,4.88
2023-02-19T03:30:21.547Z,5.10
2023-02-19T03:32:56.934Z,5.22
2023-02-19T03:35:25.958Z,3.28
2023-02-19T03:38:08.073Z,3.80
2023-02-19T03:40:38.660Z,3.50
2023-02-19T03:43:16.751Z,3.85
2023-02-19T03:45:53.384Z,3.67
2023-02-19T03:48:25.540Z,2.85
2023-02-19T03:51:00.736Z,3.90
2023-02-19T03:53:52.223Z,4.10
2023-02-19T03:56:34.012Z,4.50
2023-02-19T03:59:37.411Z,4.57
2023-02-19T04:02:29.274Z,4.78
2023-02-19T04:05:01.899Z,5.13
2023-02-19T04:07:28.706Z,6.97
2023-02-19T04:09:55.772Z,3.00
2023-02-19T04:12:22.507Z,5.57
2023-02-19T04:14:51.480Z,5.10
2023-02-19T04:17:34.521Z,4.65
2023-02-19T04:20:02.678Z,3.90
2023-02-19T04:22:29.416Z,3.38
2023-02-19T04:24:56.742Z,5.47
2023-02-19T04:27:23.523Z,4.70
2023-02-19T04:29:50.633Z,4.97
2023-02-19T04:32:17.385Z,3.90
2023-02-19T04:34:44.519Z,4.63
2023-02-19T04:37:11.477Z,5.15
2023-02-19T04:39:38.601Z,5.55
2023-02-19T04:42:05.583Z,4.18
2023-02-19T04:44:33.572Z,5.00
2023-02-19T04:47:00.878Z,5.20
2023-02-19T04:49:27.976Z,5.75
2023-02-19T04:51:54.688Z,4.57
2023-02-19T04:54:21.809Z,4.18
2023-02-19T04:56:50.696Z,7.18
2023-02-19T04:59:17.890Z,7.93
2023-02-19T05:01:44.680Z,8.05
2023-02-19T05:04:11.794Z,5.55
2023-02-19T05:06:38.571Z,7.18
2023-02-19T05:09:05.616Z,6.45
2023-02-19T05:11:32.424Z,4.85
2023-02-19T05:13:59.656Z,5.32
2023-02-19T05:16:26.408Z,5.60
2023-02-19T05:18:53.508Z,6.15
2023-02-19T05:21:20.329Z,11.23
2023-02-19T05:23:47.374Z,8.35
2023-02-19T05:26:19.095Z,7.70
2023-02-19T05:28:46.713Z,7.63
2023-02-19T05:31:14.051Z,7.30
2023-02-19T05:33:43.056Z,9.88
2023-02-19T05:36:11.558Z,7.35
2023-02-19T05:38:38.717Z,8.07
2023-02-19T05:41:16.532Z,8.35
2023-02-19T05:43:44.540Z,8.48
2023-02-19T05:46:12.862Z,8.18
2023-02-19T05:48:40.039Z,10.35
2023-02-19T05:51:08.674Z,9.43
2023-02-19T05:53:36.100Z,7.15
2023-02-19T05:56:03.045Z,9.50
2023-02-19T05:58:30.318Z,7.78
2023-02-19T06:00:57.255Z,8.65
2023-02-19T06:03:24.403Z,8.05
2023-02-19T06:05:51.164Z,10.88
2023-02-19T06:08:18.317Z,9.35
2023-02-19T06:10:45.298Z,9.35
2023-02-19T06:13:12.344Z,6.55
2023-02-19T06:15:39.243Z,7.50
2023-02-19T06:18:06.307Z,5.95
2023-02-19T06:20:33.146Z,6.47
2023-02-19T06:23:00.238Z,5.47
2023-02-19T06:25:26.993Z,6.18
2023-02-19T06:27:54.154Z,6.60
2023-02-19T06:30:20.943Z,4.95
2023-02-19T06:32:48.078Z,5.53
2023-02-19T06:35:14.802Z,6.20
2023-02-19T06:37:41.922Z,5.72
2023-02-19T06:40:09.046Z,5.85
2023-02-19T06:42:36.113Z,5.18
2023-02-19T06:45:02.896Z,4.25
2023-02-19T06:47:33.456Z,6.25
2023-02-19T06:50:00.462Z,7.90
2023-02-19T06:52:27.609Z,4.25
2023-02-19T06:54:54.366Z,4.30
2023-02-19T06:57:21.470Z,5.53
2023-02-19T06:59:48.289Z,6.38
2023-02-19T07:02:15.427Z,7.03
2023-02-19T07:04:42.195Z,6.32
2023-02-19T07:07:11.848Z,7.63
2023-02-19T07:09:38.587Z,7.80
2023-02-19T07:12:06.014Z,8.85
2023-02-19T07:14:32.936Z,10.05
2023-02-19T07:16:59.978Z,6.72
2023-02-19T07:19:26.871Z,7.20
2023-02-19T07:21:53.972Z,8.45
2023-02-19T07:24:21.691Z,8.98
2023-02-19T07:26:48.767Z,12.63
2023-02-19T07:29:15.637Z,9.80
2023-02-19T07:31:43.161Z,11.30
2023-02-19T07:34:09.925Z,11.43
2023-02-19T07:36:37.018Z,13.60
2023-02-19T07:39:03.864Z,10.40
2023-02-19T07:41:30.931Z,15.20
2023-02-19T07:43:57.743Z,12.90
2023-02-19T07:46:24.951Z,13.32
2023-02-19T07:48:51.736Z,14.40
2023-02-19T07:51:19.692Z,13.23
2023-02-19T07:53:47.067Z,12.10
2023-02-19T07:56:14.377Z,12.00
2023-02-19T07:58:41.305Z,13.43
2023-02-19T08:01:08.756Z,13.20
2023-02-19T08:03:36.909Z,11.98
2023-02-19T08:06:04.713Z,13.98
2023-02-19T08:08:31.505Z,14.73
2023-02-19T08:11:20.878Z,15.10
2023-02-19T08:13:51.454Z,12.98
2023-02-19T08:16:29.763Z,15.30
2023-02-19T08:19:00.235Z,14.90
2023-02-19T08:21:27.318Z,12.82
2023-02-19T08:23:54.132Z,14.55
2023-02-19T08:26:21.260Z,15.82
2023-02-19T08:28:49.558Z,16.30
2023-02-19T08:31:16.828Z,15.32
2023-02-19T08:33:43.719Z,14.15
2023-02-19T08:36:11.016Z,15.25
2023-02-19T08:38:38.020Z,12.40
2023-02-19T08:41:10.281Z,13.02
2023-02-19T08:43:37.241Z,15.45
2023-02-19T08:46:04.634Z,14.93
2023-02-19T08:48:31.457Z,15.23
2023-02-19T08:51:00.478Z,15.00
2023-02-19T08:53:27.315Z,14.02
2023-02-19T08:55:54.436Z,17.30
2023-02-19T08:58:21.388Z,13.98
2023-02-19T09:00:48.580Z,16.88
2023-02-19T09:03:15.304Z,15.38
2023-02-19T09:05:42.402Z,17.98
2023-02-19T09:08:09.409Z,20.08
2023-02-19T09:10:36.556Z,19.75
2023-02-19T09:13:03.462Z,22.50
2023-02-19T09:15:31.236Z,22.25
2023-02-19T09:17:58.095Z,24.15
2023-02-19T09:20:25.205Z,22.73
2023-02-19T09:22:56.924Z,22.35
2023-02-19T09:25:24.499Z,21.55
2023-02-19T09:27:54.846Z,21.00
2023-02-19T09:30:21.986Z,19.73
2023-02-19T09:32:48.806Z,23.50
2023-02-19T09:35:15.927Z,19.75
2023-02-19T09:37:42.679Z,20.75
2023-02-19T09:40:10.147Z,20.20
2023-02-19T09:42:37.043Z,18.05
2023-02-19T09:45:04.261Z,19.02
2023-02-19T09:47:31.828Z,15.98
2023-02-19T09:50:09.617Z,12.65
2023-02-19T09:52:45.693Z,11.55
2023-02-19T09:55:29.302Z,12.23
2023-02-19T09:57:56.631Z,23.58
2023-02-19T10:00:28.100Z,11.75
2023-02-19T10:02:59.623Z,9.07
2023-02-19T10:05:26.865Z,10.20
2023-02-19T10:07:54.208Z,10.93
2023-02-19T10:10:30.282Z,9.95
2023-02-19T10:13:19.775Z,9.70
2023-02-19T10:15:57.813Z,8.75
2023-02-19T10:18:28.342Z,8.90
2023-02-19T10:20:55.848Z,8.30
2023-02-19T10:23:22.649Z,7.22
2023-02-19T10:25:54.391Z,7.00
2023-02-19T10:28:22.820Z,8.02
2023-02-19T10:30:56.247Z,5.72
2023-02-19T10:33:23.260Z,6.88
2023-02-19T10:36:16.198Z,7.32
2023-02-19T10:38:46.541Z,6.88
2023-02-19T10:41:20.806Z,7.88
2023-02-19T10:43:53.655Z,6.20
2023-02-19T10:46:20.714Z,7.13
2023-02-19T10:48:53.560Z,4.93
2023-02-19T10:51:25.418Z,5.85
2023-02-19T10:54:02.896Z,5.53
2023-02-19T10:56:31.389Z,8.48
2023-02-19T10:59:23.147Z,9.80
2023-02-19T11:01:54.576Z,5.90
2023-02-19T11:04:21.491Z,6.40
2023-02-19T11:06:48.638Z,6.18
2023-02-19T11:09:31.083Z,7.25
2023-02-19T11:11:59.523Z,6.38
2023-02-19T11:14:26.690Z,6.65
2023-02-19T11:16:57.528Z,6.28
2023-02-19T11:19:27.577Z,4.70
2023-02-19T11:21:54.947Z,6.35
2023-02-19T11:24:29.048Z,5.65
2023-02-19T11:26:56.644Z,5.90
2023-02-19T11:29:24.627Z,4.68
2023-02-19T11:31:51.855Z,2.90
2023-02-19T11:34:21.397Z,4.32
2023-02-19T11:36:53.599Z,3.88
2023-02-19T11:39:22.928Z,6.50
2023-02-19T11:42:21.929Z,4.78
2023-02-19T11:45:01.067Z,5.28
2023-02-19T11:48:05.343Z,6.05
2023-02-19T11:50:59.641Z,11.82
2023-02-19T11:53:33.967Z,6.78
2023-02-19T11:56:16.895Z,8.48
2023-02-19T11:59:00.821Z,8.93
2023-02-19T12:01:33.697Z,8.90
2023-02-19T12:04:19.172Z,8.77
2023-02-19T12:07:17.597Z,11.70
2023-02-19T12:10:06.052Z,8.02
2023-02-19T12:12:39.121Z,7.10
2023-02-19T12:15:15.461Z,7.10
2023-02-19T12:17:54.173Z,7.28
2023-02-19T12:20:42.579Z,8.13
2023-02-19T12:23:48.010Z,5.55
2023-02-19T12:26:27.820Z,8.05
2023-02-19T12:29:32.177Z,6.28
2023-02-19T12:32:21.189Z,6.68
2023-02-19T12:34:51.057Z,5.32
2023-02-19T12:37:32.524Z,6.97
2023-02-19T12:40:28.067Z,5.95
2023-02-19T12:43:04.086Z,5.90
2023-02-19T12:45:53.085Z,6.07
2023-02-19T12:48:26.373Z,5.55
2023-02-19T12:51:01.209Z,5.60
2023-02-19T12:53:33.824Z,6.35
2023-02-19T12:56:00.971Z,5.15
2023-02-19T12:58:55.872Z,5.78
2023-02-19T13:01:28.524Z,5.20
2023-02-19T13:04:35.308Z,6.45
2023-02-19T13:07:08.806Z,7.63
2023-02-19T13:09:57.026Z,6.07
2023-02-19T13:12:26.435Z,5.65
2023-02-19T13:15:01.363Z,7.05
2023-02-19T13:17:47.990Z,6.47
2023-02-19T13:20:37.194Z,5.15
2023-02-19T13:23:32.074Z,5.60
2023-02-19T13:26:18.093Z,5.72
2023-02-19T13:29:00.554Z,5.30
2023-02-19T13:32:00.647Z,8.52
2023-02-19T13:35:05.340Z,5.53
2023-02-19T13:37:34.410Z,5.20
2023-02-19T13:40:05.328Z,4.40
2023-02-19T13:42:34.272Z,6.53
2023-02-19T13:45:05.492Z,4.82
2023-02-19T13:47:54.537Z,4.50
2023-02-19T13:50:26.408Z,5.13
2023-02-19T13:52:54.998Z,4.82
2023-02-19T13:55:44.465Z,5.75
2023-02-19T13:58:33.536Z,4.93
2023-02-19T14:01:01.723Z,6.93
2023-02-19T14:03:52.076Z,5.80
2023-02-19T14:06:19.019Z,7.30
2023-02-19T14:08:58.707Z,8.68
2023-02-19T14:11:51.853Z,6.47
2023-02-19T14:14:41.748Z,6.13
2023-02-19T14:17:08.574Z,6.82
2023-02-19T14:19:41.819Z,6.53
2023-02-19T14:22:45.965Z,10.85
2023-02-19T14:25:31.373Z,9.32
2023-02-19T14:28:10.311Z,8.10
2023-02-19T14:30:55.897Z,7.57
2023-02-19T14:33:33.286Z,8.32
2023-02-19T14:36:06.535Z,8.48
2023-02-19T14:38:39.317Z,6.68
2023-02-19T14:41:06.464Z,9.27
2023-02-19T14:43:33.438Z,6.78
2023-02-19T14:46:02.137Z,6.47
2023-02-19T14:48:34.778Z,8.00
2023-02-19T14:51:07.987Z,8.63
2023-02-19T14:53:40.521Z,7.50
2023-02-19T14:56:07.746Z,5.85
2023-02-19T14:58:36.942Z,6.03
2023-02-19T15:01:05.572Z,8.38
2023-02-19T15:03:34.484Z,10.32
2023-02-19T15:06:05.956Z,7.70
2023-02-19T15:08:42.434Z,10.57
2023-02-19T15:11:16.549Z,6.50
2023-02-19T15:13:45.802Z,8.35
2023-02-19T15:16:18.208Z,9.18
2023-02-19T15:18:46.492Z,8.63
2023-02-19T15:21:21.477Z,9.40
2023-02-19T15:23:48.241Z,7.03
2023-02-19T15:26:20.234Z,6.65
2023-02-19T15:28:47.039Z,5.90
2023-02-19T15:31:15.582Z,6.18
2023-02-19T15:33:50.439Z,6.55
2023-02-19T15:36:29.887Z,8.10
2023-02-19T15:38:58.497Z,6.25
2023-02-19T15:41:28.437Z,5.47
2023-02-19T15:44:36.546Z,8.15
2023-02-19T15:47:11.481Z,7.78
2023-02-19T15:49:55.591Z,7.07
2023-02-19T15:52:41.450Z,6.35
2023-02-19T15:55:17.607Z,6.20
2023-02-19T15:57:47.253Z,7.40
2023-02-19T16:00:24.241Z,7.65
2023-02-19T16:02:51.443Z,5.70
2023-02-19T16:05:26.415Z,7.88
2023-02-19T16:08:07.141Z,7.90
2023-02-19T16:10:34.026Z,4.97
2023-02-19T16:13:02.665Z,6.50
2023-02-19T16:15:30.502Z,6.40
2023-02-19T16:17:57.659Z,7.47
2023-02-19T16:20:28.285Z,5.63
2023-02-19T16:23:00.918Z,8.45
2023-02-19T16:25:37.550Z,6.70
2023-02-19T16:28:33.574Z,6.10
2023-02-19T16:31:07.582Z,6.35
2023-02-19T16:33:48.200Z,5.25
2023-02-19T16:36:34.424Z,5.45
2023-02-19T16:39:07.636Z,6.63
2023-02-19T16:41:35.036Z,7.05
2023-02-19T16:44:06.585Z,6.57
2023-02-19T16:46:33.392Z,5.20
2023-02-19T16:49:00.519Z,5.40
2023-02-19T16:51:27.366Z,10.70
2023-02-19T16:53:54.465Z,6.43
2023-02-19T16:56:23.123Z,6.47
2023-02-19T16:58:50.509Z,7.30
2023-02-19T17:01:17.779Z,7.45
2023-02-19T17:03:45.195Z,6.93
2023-02-19T17:06:12.093Z,8.90
2023-02-19T17:08:43.183Z,8.45
2023-02-19T17:11:14.882Z,8.65
2023-02-19T17:13:42.479Z,11.23
2023-02-19T17:16:13.512Z,10.00
2023-02-19T17:18:40.557Z,10.10
2023-02-19T17:21:15.169Z,9.90
2023-02-19T17:23:42.428Z,12.90
2023-02-19T17:26:14.813Z,11.20
2023-02-19T17:28:41.874Z,9.88
2023-02-19T17:31:10.638Z,11.98
2023-02-19T17:33:38.606Z,14.98
2023-02-19T17:36:05.856Z,16.13
2023-02-19T17:38:33.020Z,17.58
2023-02-19T17:40:59.787Z,17.85
2023-02-19T17:43:26.906Z,15.57
2023-02-19T17:45:53.727Z,17.20
2023-02-19T17:48:20.820Z,19.08
2023-02-19T17:50:50.321Z,18.60
2023-02-19T17:53:17.348Z,18.98
2023-02-19T17:55:44.432Z,21.98
2023-02-19T17:58:11.758Z,21.52
2023-02-19T18:00:38.630Z,17.50
2023-02-19T18:03:07.596Z,18.65
2023-02-19T18:05:34.449Z,19.17
2023-02-19T18:08:01.524Z,18.75
2023-02-19T18:10:28.386Z,16.27
2023-02-19T18:12:55.559Z,20.42
2023-02-19T18:15:24.194Z,21.70
2023-02-19T18:17:51.315Z,20.90
2023-02-19T18:20:22.955Z,15.93
2023-02-19T18:22:50.096Z,17.00
2023-02-19T18:25:17.311Z,23.42
2023-02-19T18:27:44.602Z,20.38
2023-02-19T18:30:12.273Z,20.40
2023-02-19T18:32:39.787Z,19.67
2023-02-19T18:35:07.152Z,21.13
2023-02-19T18:37:35.524Z,21.00
2023-02-19T18:40:04.168Z,20.35
2023-02-19T18:42:31.414Z,27.02
2023-02-19T18:44:58.366Z,22.63
2023-02-19T18:47:25.738Z,26.88
2023-02-19T18:49:54.145Z,26.67
2023-02-19T18:52:21.778Z,28.90
2023-02-19T18:54:49.389Z,32.33
2023-02-19T18:57:16.583Z,28.40
2023-02-19T18:59:43.454Z,32.15
2023-02-19T19:02:10.694Z,33.38
2023-02-19T19:04:38.189Z,28.48
2023-02-19T19:07:05.733Z,30.65
2023-02-19T19:09:33.202Z,30.42
2023-02-19T19:12:00.475Z,29.75
2023-02-19T19:14:27.376Z,27.73
2023-02-19T19:16:54.533Z,31.08
2023-02-19T19:19:21.389Z,30.80
2023-02-19T19:21:54.774Z,28.70
2023-02-19T19:24:22.278Z,29.70
2023-02-19T19:26:50.022Z,32.90
2023-02-19T19:29:18.058Z,30.50
2023-02-19T19:31:45.320Z,31.23
2023-02-19T19:34:12.316Z,30.58
2023-02-19T19:36:39.483Z,28.20
2023-02-19T19:39:06.739Z,32.13
2023-02-19T19:41:33.883Z,31.40
2023-02-19T19:44:04.873Z,29.45
2023-02-19T19:46:32.601Z,30.33
2023-02-19T19:48:59.429Z,34.03
2023-02-19T19:51:33.539Z,30.95
2023-02-19T19:54:01.188Z,39.17
2023-02-19T19:56:28.343Z,37.25
2023-02-19T19:58:55.167Z,35.72
2023-02-19T20:01:23.285Z,37.85
2023-02-19T20:03:51.213Z,37.15
2023-02-19T20:06:28.696Z,35.63
2023-02-19T20:08:55.704Z,34.72
2023-02-19T20:11:23.314Z,35.33
2023-02-19T20:13:50.155Z,40.80
2023-02-19T20:16:17.343Z,30.95
2023-02-19T20:18:44.196Z,34.42
2023-02-19T20:21:11.778Z,32.00
2023-02-19T20:23:39.805Z,29.40
2023-02-19T20:26:07.195Z,27.83
2023-02-19T20:28:34.029Z,31.52
2023-02-19T20:31:01.443Z,29.10
2023-02-19T20:33:28.465Z,27.88
2023-02-19T20:35:56.969Z,28.10
2023-02-19T20:38:23.799Z,28.40
2023-02-19T20:40:50.966Z,25.27
2023-02-19T20:43:17.820Z,31.23
2023-02-19T20:45:46.502Z,22.45
2023-02-19T20:48:17.982Z,25.83
2023-02-19T20:50:45.156Z,22.05
2023-02-19T20:53:12.050Z,20.92
2023-02-19T20:55:39.294Z,24.48
2023-02-19T20:58:06.105Z,22.35
2023-02-19T21:00:33.221Z,21.73
2023-02-19T21:03:00.075Z,21.52
2023-02-19T21:05:27.596Z,20.77
2023-02-19T21:07:54.420Z,21.58
2023-02-19T21:10:22.059Z,20.02
2023-02-19T21:12:50.637Z,19.95
2023-02-19T21:15:18.001Z,18.65
2023-02-19T21:17:45.667Z,19.80
2023-02-19T21:20:13.654Z,20.85
2023-02-19T21:22:40.646Z,17.92
2023-02-19T21:25:07.884Z,19.80
2023-02-19T21:27:34.697Z,21.10
2023-02-19T21:30:01.875Z,22.63
2023-02-19T21:32:28.712Z,21.05
2023-02-19T21:34:55.903Z,19.38
2023-02-19T21:37:22.759Z,20.00
2023-02-19T21:39:49.879Z,21.30
2023-02-19T21:42:16.736Z,20.58
2023-02-19T21:44:43.800Z,18.67
2023-02-19T21:47:12.282Z,21.15
2023-02-19T21:49:41.796Z,19.85
2023-02-19T21:52:08.815Z,25.83
2023-02-19T21:54:35.938Z,25.45
2023-02-19T21:57:03.251Z,18.92
2023-02-19T21:59:30.335Z,20.73
2023-02-19T22:01:57.279Z,23.63
2023-02-19T22:04:24.656Z,26.02
2023-02-19T22:06:54.799Z,23.35
2023-02-19T22:09:21.900Z,23.08
2023-02-19T22:11:48.752Z,24.08
2023-02-19T22:14:16.209Z,24.58
2023-02-19T22:16:43.005Z,25.17
2023-02-19T22:19:12.053Z,28.67
2023-02-19T22:21:42.292Z,28.85
2023-02-19T22:24:20.112Z,27.65
2023-02-19T22:26:47.360Z,26.55
2023-02-19T22:29:14.973Z,30.70
2023-02-19T22:31:42.076Z,29.23
2023-02-19T22:34:09.485Z,32.03
2023-02-19T22:36:39.817Z,30.42
2023-02-19T22:39:08.030Z,29.70
2023-02-19T22:41:34.787Z,29.77
2023-02-19T22:44:01.905Z,29.45
2023-02-19T22:46:29.625Z,30.58
2023-02-19T22:48:56.943Z,29.98
2023-02-19T22:51:23.912Z,29.65
2023-02-19T22:53:53.006Z,31.52
2023-02-19T22:56:20.572Z,27.48
2023-02-19T22:58:47.690Z,29.67
2023-02-19T23:01:14.704Z,30.00
2023-02-19T23:03:58.397Z,29.80
2023-02-19T23:06:27.298Z,27.08
2023-02-19T23:08:55.093Z,27.90
2023-02-19T23:11:23.546Z,29.70
2023-02-19T23:13:50.790Z,24.13
2023-02-19T23:16:17.633Z,27.73
2023-02-19T23:18:44.745Z,26.30
2023-02-19T23:21:11.631Z,26.00
2023-02-19T23:23:41.556Z,25.90
2023-02-19T23:26:08.560Z,26.95
2023-02-19T23:28:35.627Z,23.70
2023-02-19T23:31:02.438Z,27.42
2023-02-19T23:33:29.510Z,24.95
2023-02-19T23:35:56.315Z,22.20
2023-02-19T23:38:23.360Z,29.05
2023-02-19T23:40:50.151Z,24.92
2023-02-19T23:43:17.189Z,25.08
2023-02-19T23:45:43.982Z,22.70
2023-02-19T23:48:11.096Z,23.75
2023-02-19T23:50:37.821Z,20.80
2023-02-19T23:53:05.001Z,21.45
2023-02-19T23:55:31.738Z,22.33
2023-02-19T23:57:58.804Z,19.42
